createdAt,value
2018-03-06T00:02:12.845Z,93491.65
2018-03-06T00:04:41.328Z,93496.30
2018-03-06T00:07:09.817Z,93492.05
2018-03-06T00:09:38.305Z,93486.70
2018-03-06T00:12:06.778Z,93481.34
2018-03-06T00:14:35.271Z,93471.59
2018-03-06T00:17:03.744Z,93471.05
2018-03-06T00:19:32.249Z,93467.03
2018-03-06T00:22:00.737Z,93462.63
2018-03-06T00:24:29.222Z,93464.36
2018-03-06T00:26:57.720Z,93448.47
2018-03-06T00:29:26.202Z,93427.08
2018-03-06T00:31:54.678Z,93420.39
2018-03-06T00:34:23.163Z,93436.83
2018-03-06T00:36:51.657Z,93438.02
2018-03-06T00:39:20.144Z,93444.45
2018-03-06T00:41:48.621Z,93441.39
2018-03-06T00:44:16.933Z,93430.69
2018-03-06T00:46:45.445Z,93440.45
2018-03-06T00:49:13.737Z,93424.00
2018-03-06T00:51:42.221Z,93430.69
2018-03-06T00:54:10.702Z,93429.35
2018-03-06T00:56:39.188Z,93428.02
2018-03-06T00:59:07.517Z,93425.34
2018-03-06T01:01:35.837Z,93431.09
2018-03-06T01:04:04.313Z,93426.13
2018-03-06T01:06:32.810Z,93426.13
2018-03-06T01:09:01.300Z,93438.95
2018-03-06T01:11:29.613Z,93440.69
2018-03-06T01:13:57.929Z,93436.28
2018-03-06T01:16:26.409Z,93435.48
2018-03-06T01:18:54.886Z,93442.97
2018-03-06T01:21:23.362Z,93446.98
2018-03-06T01:23:51.838Z,93455.39
2018-03-06T01:26:20.329Z,93447.52
2018-03-06T01:28:48.801Z,93442.57
2018-03-06T01:31:17.266Z,93433.61
2018-03-06T01:33:45.788Z,93424.24
2018-03-06T01:36:14.296Z,93420.23
2018-03-06T01:38:42.756Z,93423.06
2018-03-06T01:41:11.246Z,93424.80
2018-03-06T01:43:39.758Z,93427.47
2018-03-06T01:46:08.222Z,93429.59
2018-03-06T01:48:36.700Z,93437.07
2018-03-06T01:51:05.171Z,93435.88
2018-03-06T01:53:33.642Z,93433.61
2018-03-06T01:56:03.817Z,93443.12
2018-03-06T01:58:32.293Z,93461.69
2018-03-06T02:01:00.767Z,93464.91
2018-03-06T02:03:29.060Z,93481.34
2018-03-06T02:05:57.354Z,93490.70
2018-03-06T02:08:25.851Z,93492.44
2018-03-06T02:10:54.336Z,93510.22
2018-03-06T02:13:22.801Z,93499.91
2018-03-06T02:15:51.282Z,93507.63
2018-03-06T02:18:19.765Z,93500.95
2018-03-06T02:20:48.260Z,93504.80
2018-03-06T02:23:16.567Z,93485.94
2018-03-06T02:25:45.049Z,93493.56
2018-03-06T02:28:13.356Z,93491.53
2018-03-06T02:30:41.852Z,93492.47
2018-03-06T02:33:10.360Z,93491.13
2018-03-06T02:35:38.833Z,93480.83
2018-03-06T02:38:07.341Z,93461.71
2018-03-06T02:40:35.633Z,93469.73
2018-03-06T02:43:04.120Z,93465.17
2018-03-06T02:45:32.602Z,93457.30
2018-03-06T02:48:01.069Z,93462.66
2018-03-06T02:50:29.571Z,93463.45
2018-03-06T02:52:58.050Z,93472.41
2018-03-06T02:55:26.522Z,93465.48
2018-03-06T02:57:55.009Z,93474.45
2018-03-06T03:00:23.510Z,93467.91
2018-03-06T03:02:51.821Z,93468.46
2018-03-06T03:05:20.340Z,93466.73
2018-03-06T03:07:48.818Z,93467.67
2018-03-06T03:10:17.289Z,93474.79
2018-03-06T03:12:45.815Z,93480.19
2018-03-06T03:15:14.328Z,93483.35
2018-03-06T03:17:42.806Z,93487.84
2018-03-06T03:20:11.310Z,93481.45
2018-03-06T03:22:39.796Z,93486.95
2018-03-06T03:25:08.271Z,93497.46
2018-03-06T03:27:36.599Z,93503.36
2018-03-06T03:30:05.107Z,93494.73
2018-03-06T03:32:33.581Z,93498.30
2018-03-06T03:35:02.073Z,93496.26
2018-03-06T03:37:30.573Z,93496.75
2018-03-06T03:39:59.065Z,93501.91
2018-03-06T03:42:27.557Z,93504.67
2018-03-06T03:44:56.177Z,93499.73
2018-03-06T03:47:24.668Z,93486.30
2018-03-06T03:49:52.979Z,93489.22
2018-03-06T03:52:21.462Z,93494.98
2018-03-06T03:54:49.949Z,93494.09
2018-03-06T03:57:18.286Z,93475.09
2018-03-06T03:59:46.771Z,93481.12
2018-03-06T04:02:15.259Z,93490.42
2018-03-06T04:04:43.813Z,93481.66
2018-03-06T04:07:12.130Z,93468.84
2018-03-06T04:09:40.601Z,93465.64
2018-03-06T04:12:08.926Z,93467.92
2018-03-06T04:14:37.212Z,93464.64
2018-03-06T04:17:05.699Z,93460.02
2018-03-06T04:19:34.227Z,93459.14
2018-03-06T04:22:02.718Z,93456.01
2018-03-06T04:24:31.206Z,93449.81
2018-03-06T04:26:59.711Z,93447.38
2018-03-06T04:29:28.176Z,93448.02
2018-03-06T04:31:56.654Z,93449.95
2018-03-06T04:34:25.177Z,93446.58
2018-03-06T04:36:53.648Z,93463.27
2018-03-06T04:39:23.429Z,93458.95
2018-03-06T04:41:51.937Z,93439.83
2018-03-06T04:44:20.429Z,93459.19
2018-03-06T04:46:48.859Z,93448.89
2018-03-06T04:49:17.374Z,93443.14
2018-03-06T04:51:45.941Z,93447.16
2018-03-06T04:54:14.242Z,93453.69
2018-03-06T04:56:42.746Z,93459.04
2018-03-06T04:59:11.219Z,93457.16
2018-03-06T05:01:39.694Z,93452.98
2018-03-06T05:04:08.183Z,93454.38
2018-03-06T05:06:36.662Z,93455.96
2018-03-06T05:09:04.692Z,93464.53
2018-03-06T05:11:33.012Z,93470.13
2018-03-06T05:14:01.502Z,93471.31
2018-03-06T05:16:29.997Z,93469.03
2018-03-06T05:18:58.493Z,93466.36
2018-03-06T05:21:45.118Z,93468.09
2018-03-06T05:24:13.631Z,93471.55
2018-03-06T05:26:41.923Z,93483.04
2018-03-06T05:29:10.408Z,93479.27
2018-03-06T05:31:38.913Z,93481.00
2018-03-06T05:34:07.402Z,93486.35
2018-03-06T05:36:35.878Z,93484.86
2018-03-06T05:39:03.708Z,93486.20
2018-03-06T05:41:32.048Z,93502.49
2018-03-06T05:44:00.522Z,93504.62
2018-03-06T05:46:28.845Z,93509.97
2018-03-06T05:48:57.349Z,93524.53
2018-03-06T05:51:25.834Z,93526.26
2018-03-06T05:53:54.331Z,93536.02
2018-03-06T05:56:22.610Z,93536.02
2018-03-06T05:58:50.900Z,93534.13
2018-03-06T06:01:19.402Z,93536.23
2018-03-06T06:03:47.892Z,93542.52
2018-03-06T06:06:16.396Z,93533.01
2018-03-06T06:08:44.746Z,93531.52
2018-03-06T06:11:13.229Z,93540.34
2018-03-06T06:13:41.699Z,93538.45
2018-03-06T06:16:10.011Z,93537.91
2018-03-06T06:18:38.289Z,93524.53
2018-03-06T06:21:06.592Z,93520.91
2018-03-06T06:23:34.904Z,93515.95
2018-03-06T06:26:03.395Z,93521.94
2018-03-06T06:28:31.693Z,93531.70
2018-03-06T06:31:00.031Z,93535.16
2018-03-06T06:33:28.337Z,93541.06
2018-03-06T06:35:56.648Z,93533.34
2018-03-06T06:38:24.958Z,93536.87
2018-03-06T06:40:53.259Z,93538.91
2018-03-06T06:43:21.532Z,93538.75
2018-03-06T06:45:50.047Z,93532.70
2018-03-06T06:48:18.350Z,93538.45
2018-03-06T06:50:46.642Z,93540.03
2018-03-06T06:53:14.968Z,93540.13
2018-03-06T06:55:43.249Z,93530.20
2018-03-06T06:58:11.536Z,93526.98
2018-03-06T07:00:39.856Z,93526.98
2018-03-06T07:03:08.156Z,93532.07
2018-03-06T07:05:36.445Z,93533.14
2018-03-06T07:08:05.596Z,93537.76
2018-03-06T07:10:33.881Z,93535.92
2018-03-06T07:13:02.176Z,93530.58
2018-03-06T07:15:30.473Z,93536.83
2018-03-06T07:17:58.750Z,93537.37
2018-03-06T07:20:26.785Z,93533.72
2018-03-06T07:22:55.110Z,93533.94
2018-03-06T07:25:23.400Z,93540.09
2018-03-06T07:27:51.674Z,93538.27
2018-03-06T07:30:19.990Z,93544.35
2018-03-06T07:32:48.303Z,93548.81
2018-03-06T07:35:16.594Z,93538.43
2018-03-06T07:37:44.926Z,93546.44
2018-03-06T07:40:13.243Z,93551.06
2018-03-06T07:42:41.527Z,93553.06
2018-03-06T07:45:10.536Z,93548.58
2018-03-06T07:47:38.839Z,93567.81
2018-03-06T07:50:07.141Z,93568.11
2018-03-06T07:52:35.486Z,93557.03
2018-03-06T07:55:03.788Z,93548.75
2018-03-06T07:57:32.085Z,93560.02
2018-03-06T08:00:00.429Z,93532.31
2018-03-06T08:02:28.784Z,93529.50
2018-03-06T08:04:57.209Z,93525.77
2018-03-06T08:07:25.524Z,93506.19
2018-03-06T08:09:53.841Z,93508.92
2018-03-06T08:12:22.139Z,93507.13
2018-03-06T08:14:50.453Z,93500.33
2018-03-06T08:17:18.855Z,93501.51
2018-03-06T08:19:47.139Z,93501.19
2018-03-06T08:22:15.479Z,93503.58
2018-03-06T08:24:43.764Z,93505.50
2018-03-06T08:27:12.046Z,93501.78
2018-03-06T08:29:40.449Z,93491.28
2018-03-06T08:32:08.782Z,93488.66
2018-03-06T08:34:37.070Z,93476.78
2018-03-06T08:37:05.398Z,93491.67
2018-03-06T08:39:33.679Z,93494.11
2018-03-06T08:42:01.981Z,93498.67
2018-03-06T08:44:30.295Z,93508.31
2018-03-06T08:46:58.598Z,93504.38
2018-03-06T08:49:26.903Z,93491.37
2018-03-06T08:51:55.226Z,93498.39
2018-03-06T08:54:23.520Z,93512.13
2018-03-06T08:56:51.821Z,93521.69
2018-03-06T08:59:20.128Z,93527.01
2018-03-06T09:01:48.402Z,93534.27
2018-03-06T09:04:16.681Z,93528.69
2018-03-06T09:06:44.802Z,93533.68
2018-03-06T09:09:13.081Z,93536.11
2018-03-06T09:11:41.357Z,93540.70
2018-03-06T09:14:09.676Z,93542.78
2018-03-06T09:16:37.970Z,93545.21
2018-03-06T09:19:06.260Z,93539.80
2018-03-06T09:21:34.563Z,93532.82
2018-03-06T09:24:02.847Z,93519.70
2018-03-06T09:26:31.137Z,93518.27
2018-03-06T09:28:59.439Z,93512.47
2018-03-06T09:31:27.727Z,93515.53
2018-03-06T09:33:56.021Z,93521.67
2018-03-06T09:36:24.350Z,93514.31
2018-03-06T09:38:52.656Z,93527.00
2018-03-06T09:41:20.762Z,93536.06
2018-03-06T09:43:49.083Z,93541.19
2018-03-06T09:46:17.384Z,93540.25
2018-03-06T09:48:45.680Z,93536.61
2018-03-06T09:51:14.004Z,93523.34
2018-03-06T09:53:42.917Z,93529.73
2018-03-06T09:56:11.238Z,93513.00
2018-03-06T09:58:39.574Z,93506.16
2018-03-06T10:01:07.863Z,93513.23
2018-03-06T10:03:36.150Z,93517.34
2018-03-06T10:06:04.466Z,93509.38
2018-03-06T10:08:32.747Z,93508.69
2018-03-06T10:11:01.036Z,93493.98
2018-03-06T10:13:29.368Z,93508.38
2018-03-06T10:15:57.657Z,93502.64
2018-03-06T10:18:25.955Z,93497.45
2018-03-06T10:20:54.277Z,93512.24
2018-03-06T10:23:22.589Z,93515.41
2018-03-06T10:25:50.889Z,93503.22
2018-03-06T10:28:19.198Z,93490.31
2018-03-06T10:30:47.302Z,93486.16
2018-03-06T10:33:15.588Z,93493.32
2018-03-06T10:35:43.906Z,93489.01
2018-03-06T10:38:12.205Z,93474.79
2018-03-06T10:40:40.528Z,93468.20
2018-03-06T10:43:08.835Z,93464.03
2018-03-06T10:45:37.133Z,93459.84
2018-03-06T10:48:05.426Z,93456.47
2018-03-06T10:50:33.757Z,93460.08
2018-03-06T10:53:02.097Z,93464.24
2018-03-06T10:55:30.449Z,93460.63
2018-03-06T10:57:58.750Z,93453.80
2018-03-06T11:00:32.458Z,93446.95
2018-03-06T11:03:00.583Z,93444.52
2018-03-06T11:05:28.877Z,93437.69
2018-03-06T11:07:57.153Z,93435.25
2018-03-06T11:10:25.477Z,93432.42
2018-03-06T11:12:53.745Z,93425.59
2018-03-06T11:15:22.031Z,93418.59
2018-03-06T11:17:50.352Z,93432.18
2018-03-06T11:20:18.652Z,93421.57
2018-03-06T11:22:46.939Z,93423.30
2018-03-06T11:25:15.645Z,93427.80
2018-03-06T11:27:44.141Z,93426.46
2018-03-06T11:30:12.512Z,93419.62
2018-03-06T11:32:40.665Z,93411.69
2018-03-06T11:35:08.718Z,93405.88
2018-03-06T11:37:36.999Z,93392.87
2018-03-06T11:40:05.314Z,93394.84
2018-03-06T11:42:33.636Z,93403.50
2018-03-06T11:45:01.933Z,93398.00
2018-03-06T11:47:30.261Z,93396.91
2018-03-06T11:49:58.550Z,93402.34
2018-03-06T11:52:26.831Z,93394.31
2018-03-06T11:54:55.129Z,93372.61
2018-03-06T11:57:23.417Z,93356.56
2018-03-06T11:59:51.737Z,93359.08
2018-03-06T12:02:20.073Z,93368.65
2018-03-06T12:04:48.373Z,93365.27
2018-03-06T12:07:16.923Z,93364.72
2018-03-06T12:09:45.535Z,93357.09
2018-03-06T12:12:13.832Z,93356.55
2018-03-06T12:14:42.102Z,93354.81
2018-03-06T12:17:10.423Z,93381.17
2018-03-06T12:19:38.707Z,93333.56
2018-03-06T12:22:07.002Z,93343.09
2018-03-06T12:24:35.324Z,93359.53
2018-03-06T12:27:03.735Z,93352.05
2018-03-06T12:29:32.033Z,93360.08
2018-03-06T12:32:00.366Z,93344.37
2018-03-06T12:34:28.649Z,93376.47
2018-03-06T12:36:56.952Z,93385.04
2018-03-06T12:39:25.508Z,93369.14
2018-03-06T12:41:54.165Z,93364.34
2018-03-06T12:44:22.461Z,93346.95
2018-03-06T12:46:50.812Z,93350.02
2018-03-06T12:49:19.134Z,93360.33
2018-03-06T12:51:47.598Z,93345.38
2018-03-06T12:54:15.919Z,93335.47
2018-03-06T12:56:44.205Z,93336.02
2018-03-06T12:59:12.506Z,93322.64
2018-03-06T13:01:40.793Z,93330.67
2018-03-06T13:04:09.081Z,93340.03
2018-03-06T13:06:37.365Z,93346.17
2018-03-06T13:09:05.269Z,93349.94
2018-03-06T13:11:33.573Z,93348.36
2018-03-06T13:14:01.879Z,93346.00
2018-03-06T13:16:30.194Z,93348.83
2018-03-06T13:18:58.501Z,93353.54
2018-03-06T13:21:26.598Z,93365.13
2018-03-06T13:23:54.921Z,93354.19
2018-03-06T13:26:23.410Z,93347.50
2018-03-06T13:28:51.705Z,93340.97
2018-03-06T13:31:20.028Z,93347.74
2018-03-06T13:33:48.328Z,93351.11
2018-03-06T13:36:16.644Z,93341.67
2018-03-06T13:38:44.982Z,93335.86
2018-03-06T13:41:13.470Z,93331.94
2018-03-06T13:43:41.573Z,93337.58
2018-03-06T13:46:09.896Z,93340.49
2018-03-06T13:48:38.205Z,93336.17
2018-03-06T13:51:06.518Z,93337.91
2018-03-06T13:53:34.860Z,93336.17
2018-03-06T13:56:03.281Z,93337.11
2018-03-06T13:58:31.574Z,93334.59
2018-03-06T14:00:59.921Z,93327.12
2018-03-06T14:03:28.214Z,93312.56
2018-03-06T14:05:56.575Z,93313.35
2018-03-06T14:08:24.882Z,93302.49
2018-03-06T14:10:53.197Z,93301.55
2018-03-06T14:13:21.493Z,93307.30
2018-03-06T14:15:49.866Z,93315.32
2018-03-06T14:18:18.169Z,93324.37
2018-03-06T14:20:46.478Z,93318.47
2018-03-06T14:23:14.818Z,93315.95
2018-03-06T14:25:43.130Z,93308.33
2018-03-06T14:28:11.434Z,93326.50
2018-03-06T14:30:39.765Z,93325.71
2018-03-06T14:33:08.050Z,93327.98
2018-03-06T14:35:36.362Z,93318.39
2018-03-06T14:38:04.725Z,93298.09
2018-03-06T14:40:33.029Z,93301.70
2018-03-06T14:43:01.315Z,93299.19
2018-03-06T14:45:29.643Z,93298.40
2018-03-06T14:47:57.955Z,93286.91
2018-03-06T14:50:26.277Z,93277.55
2018-03-06T14:52:54.607Z,93284.78
2018-03-06T14:55:22.913Z,93273.53
2018-03-06T14:57:51.198Z,93278.67
2018-03-06T15:00:19.521Z,93284.58
2018-03-06T15:02:47.803Z,93285.67
2018-03-06T15:05:16.094Z,93271.67
2018-03-06T15:07:44.414Z,93272.22
2018-03-06T15:10:12.712Z,93264.11
2018-03-06T15:12:41.058Z,93261.98
2018-03-06T15:15:09.367Z,93266.31
2018-03-06T15:17:37.654Z,93259.38
2018-03-06T15:20:05.956Z,93266.41
2018-03-06T15:22:34.261Z,93272.86
2018-03-06T15:25:02.543Z,93275.53
2018-03-06T15:27:30.831Z,93273.02
2018-03-06T15:29:59.126Z,93282.38
2018-03-06T15:32:27.430Z,93279.46
2018-03-06T15:34:55.721Z,93290.55
2018-03-06T15:37:24.049Z,93298.58
2018-03-06T15:39:52.418Z,93298.18
2018-03-06T15:42:20.706Z,93297.94
2018-03-06T15:44:48.998Z,93290.70
2018-03-06T15:47:17.323Z,93307.45
2018-03-06T15:49:45.624Z,93305.72
2018-03-06T15:52:13.913Z,93303.84
2018-03-06T15:54:42.213Z,93311.47
2018-03-06T15:57:10.540Z,93317.20
2018-03-06T15:59:38.837Z,93310.67
2018-03-06T16:02:07.137Z,93298.48
2018-03-06T16:04:35.425Z,93310.67
2018-03-06T16:07:03.713Z,93310.13
2018-03-06T16:09:32.010Z,93307.30
2018-03-06T16:12:00.307Z,93309.98
2018-03-06T16:14:28.609Z,93311.70
2018-03-06T16:16:56.909Z,93291.65
2018-03-06T16:19:25.206Z,93281.89
2018-03-06T16:21:53.271Z,93294.48
2018-03-06T16:24:21.558Z,93294.08
2018-03-06T16:26:49.865Z,93289.52
2018-03-06T16:29:18.169Z,93282.84
2018-03-06T16:31:46.501Z,93284.96
2018-03-06T16:34:14.790Z,93279.77
2018-03-06T16:36:43.105Z,93294.88
2018-03-06T16:39:11.426Z,93301.71
2018-03-06T16:41:39.733Z,93289.67
2018-03-06T16:44:08.042Z,93296.36
2018-03-06T16:46:36.364Z,93278.59
2018-03-06T16:49:04.666Z,93270.95
2018-03-06T16:51:32.970Z,93251.84
2018-03-06T16:54:01.322Z,93269.77
2018-03-06T16:56:29.621Z,93276.46
2018-03-06T16:58:57.727Z,93289.98
2018-03-06T17:01:26.075Z,93285.36
2018-03-06T17:03:54.633Z,93284.81
2018-03-06T17:06:23.060Z,93291.89
2018-03-06T17:08:51.369Z,93284.34
2018-03-06T17:11:20.599Z,93279.78
2018-03-06T17:13:48.961Z,93295.88
2018-03-06T17:16:17.268Z,93298.01
2018-03-06T17:18:45.558Z,93287.94
2018-03-06T17:21:13.861Z,93289.91
2018-03-06T17:23:42.171Z,93298.17
2018-03-06T17:26:10.474Z,93301.48
2018-03-06T17:28:38.769Z,93293.46
2018-03-06T17:31:07.075Z,93289.30
2018-03-06T17:33:35.366Z,93290.47
2018-03-06T17:36:03.686Z,93293.75
2018-03-06T17:38:32.177Z,93281.41
2018-03-06T17:41:00.494Z,93283.30
2018-03-06T17:43:28.799Z,93262.29
2018-03-06T17:45:57.086Z,93273.77
2018-03-06T17:48:25.388Z,93280.16
2018-03-06T17:50:53.701Z,93270.23
2018-03-06T17:53:22.056Z,93283.06
2018-03-06T17:55:50.355Z,93286.53
2018-03-06T17:58:18.672Z,93315.95
2018-03-06T18:00:47.035Z,93290.78
2018-03-06T18:03:15.328Z,93306.12
2018-03-06T18:05:43.614Z,93304.23
2018-03-06T18:08:11.911Z,93293.54
2018-03-06T18:10:40.201Z,93303.45
2018-03-06T18:13:08.500Z,93317.22
2018-03-06T18:15:36.794Z,93320.84
2018-03-06T18:18:05.097Z,93319.27
2018-03-06T18:20:33.379Z,93320.36
2018-03-06T18:23:01.576Z,93289.59
2018-03-06T18:25:30.530Z,93283.61
2018-03-06T18:27:58.825Z,93303.83
2018-03-06T18:30:27.108Z,93310.13
2018-03-06T18:32:55.425Z,93280.70
2018-03-06T18:35:23.730Z,93256.39
2018-03-06T18:37:52.039Z,93254.66
2018-03-06T18:40:20.332Z,93250.25
2018-03-06T18:42:48.611Z,93235.88
2018-03-06T18:45:17.563Z,93243.52
2018-03-06T18:47:45.844Z,93240.05
2018-03-06T18:50:25.404Z,93254.91
2018-03-06T18:52:53.700Z,93264.28
2018-03-06T18:55:22.052Z,93246.26
2018-03-06T18:57:50.344Z,93281.42
2018-03-06T19:03:49.440Z,93243.34
2018-03-06T19:06:23.936Z,93252.08
2018-03-06T19:08:51.589Z,93272.69
2018-03-06T19:11:19.895Z,93267.73
2018-03-06T19:13:48.209Z,93275.59
2018-03-06T19:16:16.809Z,93268.75
2018-03-06T19:18:45.717Z,93254.83
2018-03-06T19:21:14.398Z,93263.95
2018-03-06T19:23:43.270Z,93251.59
2018-03-06T19:26:12.732Z,93273.64
2018-03-06T19:28:42.641Z,93245.62
2018-03-06T19:31:12.590Z,93265.67
2018-03-06T19:33:40.928Z,93264.19
2018-03-06T19:36:10.452Z,93265.67
2018-03-06T19:38:40.743Z,93288.41
2018-03-06T19:41:09.178Z,93287.86
2018-03-06T19:43:37.784Z,93275.27
2018-03-06T19:46:07.020Z,93273.94
2018-03-06T19:48:36.311Z,93278.50
2018-03-06T19:51:05.934Z,93278.26
2018-03-06T19:53:34.387Z,93282.66
2018-03-06T19:56:03.930Z,93291.88
2018-03-06T19:58:33.409Z,93280.63
2018-03-06T20:01:02.832Z,93279.68
2018-03-06T20:03:31.283Z,93261.27
2018-03-06T20:06:00.839Z,93262.84
2018-03-06T20:08:30.133Z,93225.01
2018-03-06T20:10:58.654Z,93299.50
2018-03-06T20:13:26.986Z,93261.51
2018-03-06T20:15:56.283Z,93253.09
2018-03-06T20:18:25.625Z,93251.20
2018-03-06T20:20:54.017Z,93234.37
2018-03-06T20:23:22.362Z,93222.88
2018-03-06T20:25:56.101Z,93244.28
2018-03-06T20:28:24.510Z,93232.24
2018-03-06T20:30:58.438Z,93230.75
2018-03-06T20:33:26.754Z,93215.80
2018-03-06T20:35:55.041Z,93201.48
2018-03-06T20:38:28.841Z,93203.77
2018-03-06T20:40:57.195Z,93201.64
2018-03-06T20:43:25.495Z,93199.36
2018-03-06T20:45:59.566Z,93212.73
2018-03-06T20:48:27.897Z,93225.16
2018-03-06T20:50:56.207Z,93225.56
2018-03-06T20:53:30.034Z,93225.95
2018-03-06T20:55:58.676Z,93218.32
2018-03-06T20:58:27.094Z,93182.38
2018-03-06T21:00:56.000Z,93184.66
2018-03-06T21:03:24.352Z,93170.34
2018-03-06T21:05:52.642Z,93182.56
2018-03-06T21:08:20.935Z,93158.30
2018-03-06T21:10:49.776Z,93168.22
2018-03-06T21:13:18.092Z,93141.86
2018-03-06T21:15:46.385Z,93167.66
2018-03-06T21:18:14.682Z,93156.81
2018-03-06T21:20:42.996Z,93162.70
2018-03-06T21:23:11.293Z,93166.33
2018-03-06T21:25:39.625Z,93167.51
2018-03-06T21:28:07.914Z,93157.98
2018-03-06T21:30:36.277Z,93195.04
2018-03-06T21:33:04.602Z,93178.60
2018-03-06T21:35:32.917Z,93155.70
2018-03-06T21:38:01.225Z,93178.99
2018-03-06T21:40:29.527Z,93150.36
2018-03-06T21:42:57.922Z,93162.95
2018-03-06T21:45:26.358Z,93193.70
2018-03-06T21:47:54.687Z,93144.38
2018-03-06T21:50:23.006Z,93139.58
2018-03-06T21:52:51.326Z,93141.16
2018-03-06T21:55:19.637Z,93137.54
2018-03-06T21:57:47.942Z,93134.63
2018-03-06T22:00:16.238Z,93129.67
2018-03-06T22:02:44.562Z,93142.89
2018-03-06T22:05:13.156Z,93157.20
2018-03-06T22:07:41.491Z,93158.94
2018-03-06T22:10:09.804Z,93157.98
2018-03-06T22:12:38.108Z,93153.98
2018-03-06T22:15:06.238Z,93152.09
2018-03-06T22:17:34.535Z,93156.89
2018-03-06T22:20:02.822Z,93163.58
2018-03-06T22:22:31.124Z,93185.92
2018-03-06T22:24:59.516Z,93228.40
2018-03-06T22:27:27.818Z,93241.37
2018-03-06T22:29:56.137Z,93225.72
2018-03-06T22:32:24.416Z,93234.06
2018-03-06T22:34:52.743Z,93234.61
2018-03-06T22:37:21.074Z,93227.38
2018-03-06T22:39:49.371Z,93222.97
2018-03-06T22:42:17.685Z,93233.27
2018-03-06T22:44:45.993Z,93273.94
2018-03-06T22:47:14.323Z,93273.70
2018-03-06T22:49:43.421Z,93258.44
2018-03-06T22:52:11.731Z,93241.21
2018-03-06T22:54:40.028Z,93259.78
2018-03-06T22:57:08.334Z,93228.23
2018-03-06T22:59:36.704Z,93238.77
2018-03-06T23:02:04.996Z,93209.05
2018-03-06T23:04:33.274Z,93208.49
2018-03-06T23:07:01.637Z,93222.66
2018-03-06T23:09:29.925Z,93227.84
2018-03-06T23:11:58.275Z,93229.58
2018-03-06T23:14:26.584Z,93236.81
2018-03-06T23:16:58.757Z,93254.05
2018-03-06T23:19:27.121Z,93265.69
2018-03-06T23:21:55.408Z,93279.06
2018-03-06T23:24:24.715Z,93278.52
2018-03-06T23:26:53.016Z,93281.97
2018-03-06T23:29:21.346Z,93277.41
2018-03-06T23:31:49.658Z,93265.92
2018-03-06T23:34:17.940Z,93256.17
2018-03-06T23:36:46.272Z,93259.79
2018-03-06T23:39:14.580Z,93283.86
2018-03-06T23:41:42.886Z,93269.70
2018-03-06T23:44:11.171Z,93269.30
2018-03-06T23:46:39.454Z,93286.69
2018-03-06T23:49:07.946Z,93295.66
2018-03-06T23:51:36.220Z,93303.69
2018-03-06T23:54:04.698Z,93308.24
2018-03-06T23:56:32.969Z,93297.55
2018-03-06T23:59:01.253Z,93289.28
